Etusivu
METAR-TAF:

METAR-TAF

Lentoasemat :

F 7 Såtenäs

Såtenäs, Ruotsi

Leveyspiiri: 58-26N, Pituuspiiri: 012-42E, korkeus merenpinnasta: 54 m

Tämänhetkinen sää

Tämä raportti tehtiin 16 minuuttia sitten, kello 22.50 UTC
Tuuli 6 kn idästä
Lämpötila 15°C
Kosteus 72%
Ilmanpaine 1027 hPa
Näkyvyys 10 km tai enemmän

METAR: ESIB 242250Z AUTO 10006KT 9999 NCD 15/10 Q1027

Aika: 01:06 (23:06 UTC)

Sääennuste

Tämä raportti tehtiin 11 tuntia ja 36 minuuttia sitten, kello 11.30 UTC
Ennuste voimassa 24. päivästä klo 12 UTC - 24. päivään klo 15 UTC
Tuuli 5 kn pohjoisesta/koillisesta
Näkyvyys 10 km tai enemmän
ei pilviä alle 1500 m:ssä eikä cumulonimbus-pilviä

TAF: ESIB 241130Z 2412/2415 02005KT CAVOK RMK MIL

Säähavainnot ja -ennusteet yli 4000 lentoasemalta (METAR- ja TAF-raportit).

Käytössä olevat sääasemat on merkitty karttaan keltaisilla ja punaisilla pisteillä.

Aseta hiiri pisteen päälle nähdäksesi sääaseman nimen.

Klikkaa sitten nähdäksesi säähavainnot ja -ennusteet.

Kartan vaihtaminen: klikkaa mustalla rastilla varustettuja vihreitä pisteitä, niin voit zoomata sisään; viivalla varustettua vihreää pistettä, niin voit zoomata ulos tai vihreitä nuolia, niin pääset viereisille kartoille.


METAR-TAF: